الصفحة الرئيسية
METAR-TAF:

METAR-TAF

مطار :

مطار تشيناي الدولي

تشيناي, الهند

دائرة عرض: 13-00N, خط طول: 080-11E, ارتفاع: 10 متر

مراقبة الطقس الحالي

تاريخ ووقت الإصدار 38 دقيقة قبل الساعة 00:30UTC
ريح 6 عقدة من الجنوب الغربي
درجة الحرارة 30°درجة مئوية
الرطوبة 62%
ضغط 1005 hPa
الرؤية: 6000 متر
غيوم مفككة على ارتفاع 1800 قدم

METAR: VOMM 240030Z 23006KT 6000 BKN018 30/22 Q1005 NOSIG

زمن: 06:38 (01:08 UTC)

توقعات

تاريخ ووقت الإصدار 2ساعات و 8 دقيقة قبل الساعة 23:00UTC
التوقعات صالحة من24 الساعة 00 UTC إلى 25 الساعة 06 UTC
ريح 10 عقدة من الجنوب
الرؤية: 6000 متر
غيوم قليلة على ارتفاع 2000 قدم
أصبح
من 24 الساعة 03 UTC إلى 24 الساعة 04 UTC
ريح 10 عقدة من الغرب/الجنوب الغربي تتزايد حتى 20 عقدة
أصبح
من 24 الساعة 09 UTC إلى 24 الساعة 10 UTC
ريح 10 عقدة من الغرب/الجنوب الغربي
أصبح
من 24 الساعة 12 UTC إلى 24 الساعة 13 UTC
ريح 10 عقدة من الجنوب
أصبح
من 25 الساعة 03 UTC إلى 25 الساعة 04 UTC
ريح 10 عقدة من الغرب/الجنوب الغربي تتزايد حتى 20 عقدة

TAF: VOMM 232300Z 2400/2506 18010KT 6000 FEW020 BECMG 2403/2404 25010G20KT BECMG 2409/2410 24010KT BECMG 2412/2413 18010KT BECMG 2503/2504 25010G20KT

أرصاد الطقس والتوقعات من أكثر من 4000 مطار (تقارير الطقس للمطار METAR والتنبؤ بالطقس بالمطارTAF).

المحطات المتاحة هي النقط الصفراء والحمراء على الخريطة.

حرك المؤشر فوق النقطة لمعرفة اسم المحطة.

ثم انقر لمعرفة أرصاد وتوقعات الطقس.

لتغيير الخارطة: اضغط على الأزرار الخضراء مع رمز الصليب الأسود للتكبير. على الزر الأخضر مع شرطة للتصغير، أو على الأسهم الخضراء للخرائط المجاورة.


METAR-TAF: